createdAt,value
2019-02-14T00:00:48.275Z,75.90
2019-02-14T00:03:17.710Z,75.90
2019-02-14T00:05:47.153Z,76.39
2019-02-14T00:08:16.581Z,77.10
2019-02-14T00:10:46.025Z,77.27
2019-02-14T00:13:15.460Z,77.36
2019-02-14T00:15:44.902Z,77.99
2019-02-14T00:18:14.333Z,78.28
2019-02-14T00:20:43.779Z,77.99
2019-02-14T00:23:13.218Z,77.56
2019-02-14T00:25:42.653Z,77.40
2019-02-14T00:28:12.086Z,77.62
2019-02-14T00:30:41.536Z,77.66
2019-02-14T00:33:10.969Z,78.17
2019-02-14T00:35:40.482Z,78.48
2019-02-14T00:38:09.914Z,79.26
2019-02-14T00:40:39.358Z,78.95
2019-02-14T00:43:08.788Z,78.87
2019-02-14T00:45:38.218Z,78.50
2019-02-14T00:48:07.664Z,78.88
2019-02-14T00:50:37.099Z,78.67
2019-02-14T00:53:06.546Z,78.62
2019-02-14T00:55:35.981Z,78.81
2019-02-14T00:58:05.433Z,78.95
2019-02-14T01:00:34.866Z,78.66
2019-02-14T01:03:04.372Z,78.33
2019-02-14T01:05:33.989Z,79.07
2019-02-14T01:08:03.531Z,79.75
2019-02-14T01:10:32.968Z,79.83
2019-02-14T01:13:02.416Z,79.32
2019-02-14T01:15:32.121Z,79.19
2019-02-14T01:18:01.568Z,79.10
2019-02-14T01:20:30.997Z,79.03
2019-02-14T01:23:00.436Z,78.75
2019-02-14T01:25:29.864Z,78.70
2019-02-14T01:27:59.311Z,78.57
2019-02-14T01:30:28.749Z,78.61
2019-02-14T01:32:58.188Z,78.78
2019-02-14T01:35:27.623Z,78.36
2019-02-14T01:37:57.066Z,78.74
2019-02-14T01:40:26.502Z,79.13
2019-02-14T01:42:55.940Z,79.46
2019-02-14T01:45:25.375Z,79.36
2019-02-14T01:47:54.814Z,79.95
2019-02-14T01:50:24.254Z,79.84
2019-02-14T01:52:53.696Z,79.60
2019-02-14T01:55:23.149Z,79.98
2019-02-14T01:57:52.570Z,80.17
2019-02-14T02:00:22.014Z,79.96
2019-02-14T02:02:51.456Z,79.80
2019-02-14T02:05:20.884Z,79.35
2019-02-14T02:07:50.321Z,79.17
2019-02-14T02:10:19.754Z,79.24
2019-02-14T02:12:49.266Z,79.79
2019-02-14T02:15:18.705Z,79.50
2019-02-14T02:17:48.148Z,79.76
2019-02-14T02:20:17.584Z,79.52
2019-02-14T02:22:47.026Z,79.37
2019-02-14T02:25:16.459Z,79.84
2019-02-14T02:27:45.898Z,79.54
2019-02-14T02:30:16.106Z,79.38
2019-02-14T02:32:45.550Z,78.94
2019-02-14T02:35:14.983Z,79.28
2019-02-14T02:37:44.409Z,79.37
2019-02-14T02:40:13.853Z,78.96
2019-02-14T02:42:43.284Z,79.07
2019-02-14T02:45:13.564Z,79.48
2019-02-14T02:47:42.993Z,79.25
2019-02-14T02:50:13.384Z,79.65
2019-02-14T02:52:42.818Z,79.18
2019-02-14T02:55:12.256Z,79.35
2019-02-14T02:57:41.689Z,79.50
2019-02-14T03:00:18.673Z,79.63
2019-02-14T03:02:48.106Z,79.84
2019-02-14T03:05:17.551Z,79.55
2019-02-14T03:07:46.995Z,79.24
2019-02-14T03:10:16.448Z,79.75
2019-02-14T03:12:45.893Z,80.06
2019-02-14T03:15:16.447Z,80.45
2019-02-14T03:17:46.708Z,80.16
2019-02-14T03:20:16.153Z,79.80
2019-02-14T03:22:45.589Z,79.25
2019-02-14T03:25:18.059Z,79.28
2019-02-14T03:27:47.487Z,79.83
2019-02-14T03:30:17.502Z,80.21
2019-02-14T03:32:46.936Z,80.12
2019-02-14T03:35:16.386Z,79.85
2019-02-14T03:37:45.826Z,79.99
2019-02-14T03:40:15.837Z,79.99
2019-02-14T03:42:45.278Z,80.13
2019-02-14T03:45:20.212Z,80.66
2019-02-14T03:47:49.649Z,80.63
2019-02-14T03:50:19.085Z,80.00
2019-02-14T03:52:48.522Z,79.74
2019-02-14T03:55:17.968Z,79.77
2019-02-14T03:57:47.399Z,79.72
2019-02-14T04:00:18.256Z,79.55
2019-02-14T04:02:47.691Z,79.49
2019-02-14T04:05:17.135Z,79.49
2019-02-14T04:07:46.578Z,79.60
2019-02-14T04:10:16.397Z,79.67
2019-02-14T04:12:45.833Z,79.60
2019-02-14T04:15:17.386Z,79.35
2019-02-14T04:17:46.822Z,79.04
2019-02-14T04:20:16.276Z,79.21
2019-02-14T04:22:45.707Z,79.21
2019-02-14T04:25:15.148Z,79.12
2019-02-14T04:27:46.211Z,78.91
2019-02-14T04:30:16.100Z,79.45
2019-02-14T04:32:45.537Z,79.66
2019-02-14T04:35:14.980Z,79.45
2019-02-14T04:37:44.415Z,79.20
2019-02-14T04:40:14.508Z,79.36
2019-02-14T04:42:43.938Z,79.30
2019-02-14T04:45:14.021Z,79.32
2019-02-14T04:47:43.952Z,79.79
2019-02-14T04:50:13.384Z,80.11
2019-02-14T04:52:42.829Z,80.33
2019-02-14T04:55:12.635Z,80.60
2019-02-14T04:57:42.081Z,80.23
2019-02-14T05:00:14.125Z,80.24
2019-02-14T05:02:43.579Z,80.02
2019-02-14T05:05:13.083Z,80.32
2019-02-14T05:07:42.532Z,80.11
2019-02-14T05:10:12.908Z,79.53
2019-02-14T05:12:42.362Z,79.27
2019-02-14T05:15:12.431Z,79.97
2019-02-14T05:17:41.887Z,80.34
2019-02-14T05:20:12.944Z,80.33
2019-02-14T05:22:42.395Z,80.68
2019-02-14T05:25:12.092Z,80.64
2019-02-14T05:27:41.543Z,80.29
2019-02-14T05:30:14.855Z,80.18
2019-02-14T05:32:44.307Z,80.62
2019-02-14T05:35:14.224Z,80.88
2019-02-14T05:37:43.683Z,80.58
2019-02-14T05:40:13.187Z,80.91
2019-02-14T05:42:42.634Z,80.71
2019-02-14T05:45:13.892Z,80.73
2019-02-14T05:47:43.343Z,81.06
2019-02-14T05:50:14.486Z,80.79
2019-02-14T05:52:43.944Z,80.78
2019-02-14T05:55:14.009Z,80.87
2019-02-14T05:57:43.464Z,80.65
2019-02-14T06:00:15.675Z,80.72
2019-02-14T06:02:45.127Z,80.18
2019-02-14T06:05:14.554Z,79.98
2019-02-14T06:07:44.008Z,79.44
2019-02-14T06:10:13.721Z,79.97
2019-02-14T06:12:43.174Z,79.89
2019-02-14T06:15:13.840Z,80.10
2019-02-14T06:17:43.296Z,79.87
2019-02-14T06:20:13.465Z,79.90
2019-02-14T06:22:42.923Z,79.73
2019-02-14T06:25:13.869Z,79.56
2019-02-14T06:27:43.308Z,80.05
2019-02-14T06:30:16.728Z,80.42
2019-02-14T06:32:46.163Z,80.26
2019-02-14T06:35:15.602Z,80.85
2019-02-14T06:37:45.054Z,80.98
2019-02-14T06:40:15.131Z,80.77
2019-02-14T06:42:44.580Z,80.38
2019-02-14T06:45:18.511Z,80.44
2019-02-14T06:47:47.956Z,80.27
2019-02-14T06:50:17.400Z,80.63
2019-02-14T06:52:46.848Z,80.61
2019-02-14T06:55:16.285Z,80.38
2019-02-14T06:57:45.736Z,80.34
2019-02-14T07:00:17.545Z,80.32
2019-02-14T07:02:46.995Z,80.60
2019-02-14T07:05:16.433Z,80.59
2019-02-14T07:07:45.876Z,80.78
2019-02-14T07:10:15.315Z,81.10
2019-02-14T07:12:44.763Z,80.64
2019-02-14T07:15:15.308Z,80.97
2019-02-14T07:17:44.755Z,80.43
2019-02-14T07:20:19.039Z,80.26
2019-02-14T07:22:48.494Z,80.58
2019-02-14T07:25:17.932Z,80.15
2019-02-14T07:27:47.382Z,80.17
2019-02-14T07:30:28.178Z,80.25
2019-02-14T07:32:58.099Z,80.13
2019-02-14T07:35:27.533Z,80.28
2019-02-14T07:37:56.985Z,80.70
2019-02-14T07:40:26.428Z,80.69
2019-02-14T07:42:55.880Z,80.56
2019-02-14T07:45:25.324Z,80.33
2019-02-14T07:47:54.775Z,80.02
2019-02-14T07:50:24.212Z,79.79
2019-02-14T07:52:54.608Z,79.60
2019-02-14T07:55:24.048Z,79.34
2019-02-14T07:57:53.503Z,79.16
2019-02-14T08:00:23.357Z,79.52
2019-02-14T08:02:52.808Z,79.48
2019-02-14T08:05:22.252Z,79.87
2019-02-14T08:07:51.692Z,79.61
2019-02-14T08:10:21.206Z,79.25
2019-02-14T08:12:50.656Z,78.96
2019-02-14T08:15:20.086Z,78.65
2019-02-14T08:17:49.534Z,78.12
2019-02-14T08:20:22.713Z,78.08
2019-02-14T08:22:52.159Z,77.92
2019-02-14T08:25:21.594Z,77.72
2019-02-14T08:27:51.036Z,77.76
2019-02-14T08:30:21.415Z,77.38
2019-02-14T08:32:50.853Z,77.05
2019-02-14T08:35:20.285Z,76.58
2019-02-14T08:37:49.729Z,76.23
2019-02-14T08:40:34.793Z,75.89
2019-02-14T08:43:04.233Z,76.22
2019-02-14T08:45:33.682Z,76.23
2019-02-14T08:48:03.114Z,75.61
2019-02-14T08:50:32.548Z,75.08
2019-02-14T08:53:01.992Z,75.21
2019-02-14T08:55:31.431Z,74.93
2019-02-14T08:58:00.876Z,74.76
2019-02-14T09:00:30.318Z,74.19
2019-02-14T09:02:59.766Z,74.01
2019-02-14T09:05:29.198Z,73.67
2019-02-14T09:07:58.647Z,73.67
2019-02-14T09:10:28.077Z,73.68
2019-02-14T09:12:57.523Z,73.42
2019-02-14T09:15:26.962Z,72.99
2019-02-14T09:17:56.411Z,72.50
2019-02-14T09:20:25.848Z,72.27
2019-02-14T09:22:55.285Z,72.35
2019-02-14T09:25:24.802Z,72.25
2019-02-14T09:27:54.198Z,72.45
2019-02-14T09:30:23.718Z,71.79
2019-02-14T09:32:53.154Z,71.57
2019-02-14T09:35:22.601Z,71.29
2019-02-14T09:37:52.047Z,70.88
2019-02-14T09:40:21.487Z,70.46
2019-02-14T09:42:51.586Z,70.17
2019-02-14T09:45:21.021Z,70.34
2019-02-14T09:47:50.474Z,70.21
2019-02-14T09:50:19.945Z,70.31
2019-02-14T09:52:49.364Z,70.06
2019-02-14T09:55:18.827Z,69.55
2019-02-14T09:57:48.276Z,69.45
2019-02-14T10:00:19.215Z,69.37
2019-02-14T10:02:48.636Z,69.02
2019-02-14T10:05:18.085Z,68.87
2019-02-14T10:07:47.528Z,68.88
2019-02-14T10:10:19.994Z,68.17
2019-02-14T10:12:49.406Z,68.16
2019-02-14T10:15:18.843Z,68.21
2019-02-14T10:17:48.277Z,68.17
2019-02-14T10:20:18.655Z,68.01
2019-02-14T10:22:48.182Z,67.79
2019-02-14T10:25:17.641Z,67.66
2019-02-14T10:27:47.079Z,67.50
2019-02-14T10:30:20.163Z,67.29
2019-02-14T10:32:49.603Z,67.24
2019-02-14T10:35:19.048Z,67.08
2019-02-14T10:37:48.480Z,66.91
2019-02-14T10:40:18.261Z,66.77
2019-02-14T10:42:47.697Z,66.40
2019-02-14T10:45:24.024Z,66.18
2019-02-14T10:47:53.459Z,66.00
2019-02-14T10:50:22.905Z,65.36
2019-02-14T10:52:52.338Z,65.61
2019-02-14T10:55:21.783Z,65.16
2019-02-14T10:57:51.254Z,64.79
2019-02-14T11:00:28.336Z,64.67
2019-02-14T11:02:57.766Z,64.58
2019-02-14T11:05:27.488Z,63.77
2019-02-14T11:07:56.924Z,63.25
2019-02-14T11:10:26.370Z,62.93
2019-02-14T11:12:55.801Z,62.75
2019-02-14T11:15:28.629Z,62.30
2019-02-14T11:17:58.064Z,61.46
2019-02-14T11:20:27.512Z,61.82
2019-02-14T11:22:56.933Z,61.46
2019-02-14T11:25:36.182Z,61.22
2019-02-14T11:28:05.608Z,60.93
2019-02-14T11:30:35.141Z,60.80
2019-02-14T11:33:04.580Z,60.48
2019-02-14T11:35:34.018Z,60.49
2019-02-14T11:38:03.456Z,60.61
2019-02-14T11:40:32.982Z,60.07
2019-02-14T11:43:02.411Z,59.76
2019-02-14T11:45:31.860Z,59.01
2019-02-14T11:48:01.301Z,58.33
2019-02-14T11:50:30.746Z,57.72
2019-02-14T11:53:00.172Z,56.75
2019-02-14T11:55:29.622Z,55.93
2019-02-14T11:57:59.052Z,56.42
2019-02-14T12:00:28.495Z,56.04
2019-02-14T12:02:57.935Z,55.75
2019-02-14T12:05:27.372Z,52.00
2019-02-14T12:07:56.801Z,52.88
2019-02-14T12:10:26.245Z,51.70
2019-02-14T12:12:55.671Z,52.76
2019-02-14T12:15:25.488Z,53.18
2019-02-14T12:17:54.926Z,52.82
2019-02-14T12:20:24.388Z,52.78
2019-02-14T12:22:53.828Z,49.88
2019-02-14T12:25:29.769Z,50.89
2019-02-14T12:27:59.462Z,50.76
2019-02-14T12:30:28.904Z,51.49
2019-02-14T12:32:58.342Z,51.48
2019-02-14T12:35:27.781Z,51.29
2019-02-14T12:37:57.591Z,51.04
2019-02-14T12:40:27.108Z,51.25
2019-02-14T12:42:56.560Z,51.27
2019-02-14T12:45:28.015Z,51.26
2019-02-14T12:47:57.467Z,50.86
2019-02-14T12:50:26.925Z,48.76
2019-02-14T12:52:56.413Z,47.47
2019-02-14T12:55:25.866Z,47.59
2019-02-14T12:57:55.314Z,46.93
2019-02-14T13:00:25.720Z,46.92
2019-02-14T13:02:55.185Z,47.69
2019-02-14T13:05:24.629Z,47.96
2019-02-14T13:07:54.080Z,48.88
2019-02-14T13:10:23.613Z,48.88
2019-02-14T13:12:53.070Z,49.29
2019-02-14T13:15:26.126Z,48.58
2019-02-14T13:17:55.569Z,46.13
2019-02-14T13:20:25.100Z,37.59
2019-02-14T13:22:54.555Z,39.89
2019-02-14T13:25:24.024Z,43.52
2019-02-14T13:27:53.477Z,44.39
2019-02-14T13:30:27.391Z,45.75
2019-02-14T13:32:56.860Z,46.42
2019-02-14T13:35:26.272Z,46.08
2019-02-14T13:37:55.717Z,46.72
2019-02-14T13:40:25.183Z,46.54
2019-02-14T13:42:54.628Z,47.46
2019-02-14T13:45:25.020Z,47.53
2019-02-14T13:47:54.474Z,47.28
2019-02-14T13:50:23.917Z,47.24
2019-02-14T13:52:53.346Z,47.17
2019-02-14T13:55:22.797Z,47.75
2019-02-14T13:57:52.248Z,47.41
2019-02-14T14:00:28.172Z,47.42
2019-02-14T14:02:57.599Z,48.00
2019-02-14T14:05:27.035Z,47.87
2019-02-14T14:07:56.474Z,48.24
2019-02-14T14:10:25.916Z,48.18
2019-02-14T14:12:55.344Z,48.45
2019-02-14T14:15:24.857Z,48.18
2019-02-14T14:17:54.300Z,48.37
2019-02-14T14:20:23.742Z,48.43
2019-02-14T14:22:53.183Z,48.16
2019-02-14T14:25:22.615Z,48.42
2019-02-14T14:27:52.064Z,48.66
2019-02-14T14:30:21.502Z,48.85
2019-02-14T14:32:50.955Z,48.70
2019-02-14T14:35:20.432Z,48.75
2019-02-14T14:37:50.685Z,48.46
2019-02-14T14:40:20.647Z,47.76
2019-02-14T14:42:49.884Z,47.58
2019-02-14T14:45:37.618Z,46.41
2019-02-14T14:48:07.818Z,47.04
2019-02-14T14:50:37.265Z,46.57
2019-02-14T14:53:07.626Z,45.38
2019-02-14T14:55:37.124Z,44.86
2019-02-14T14:58:06.566Z,43.36
2019-02-14T15:00:36.252Z,44.38
2019-02-14T15:03:05.716Z,45.94
2019-02-14T15:05:35.141Z,46.90
2019-02-14T15:08:04.597Z,47.66
2019-02-14T15:10:34.029Z,48.25
2019-02-14T15:13:03.476Z,48.46
2019-02-14T15:15:32.916Z,48.47
2019-02-14T15:18:02.366Z,48.30
2019-02-14T15:20:31.804Z,48.13
2019-02-14T15:23:01.249Z,48.20
2019-02-14T15:25:31.000Z,47.87
2019-02-14T15:28:00.448Z,42.00
2019-02-14T15:30:29.894Z,42.21
2019-02-14T15:32:59.342Z,42.83
2019-02-14T15:35:28.784Z,44.68
2019-02-14T15:37:58.237Z,45.95
2019-02-14T15:40:27.677Z,45.45
2019-02-14T15:42:57.131Z,42.60
2019-02-14T15:45:26.574Z,42.45
2019-02-14T15:47:56.024Z,43.54
2019-02-14T15:50:25.466Z,46.03
2019-02-14T15:52:56.928Z,47.08
2019-02-14T15:55:26.074Z,47.20
2019-02-14T15:57:55.529Z,48.03
2019-02-14T16:00:24.968Z,48.48
2019-02-14T16:02:54.421Z,49.11
2019-02-14T16:05:23.860Z,49.64
2019-02-14T16:07:53.312Z,50.41
2019-02-14T16:10:22.825Z,50.32
2019-02-14T16:12:52.268Z,50.95
2019-02-14T16:15:21.699Z,50.41
2019-02-14T16:17:51.148Z,50.87
2019-02-14T16:20:20.589Z,51.27
2019-02-14T16:22:50.041Z,52.04
2019-02-14T16:25:19.486Z,52.67
2019-02-14T16:27:50.570Z,53.26
2019-02-14T16:30:20.058Z,53.67
2019-02-14T16:32:49.510Z,54.22
2019-02-14T16:35:18.947Z,54.44
2019-02-14T16:37:50.440Z,54.99
2019-02-14T16:40:27.624Z,55.17
2019-02-14T16:42:50.728Z,55.44
2019-02-14T16:45:20.161Z,55.63
2019-02-14T16:47:49.619Z,56.12
2019-02-14T16:50:19.054Z,56.55
2019-02-14T16:52:48.496Z,56.78
2019-02-14T16:55:17.931Z,56.55
2019-02-14T16:57:47.387Z,57.07
2019-02-14T17:00:18.878Z,57.21
2019-02-14T17:02:47.968Z,57.78
2019-02-14T17:05:17.418Z,58.04
2019-02-14T17:07:46.853Z,58.43
2019-02-14T17:10:16.299Z,58.42
2019-02-14T17:12:45.737Z,58.26
2019-02-14T17:15:15.185Z,59.08
2019-02-14T17:17:44.624Z,59.24
2019-02-14T17:20:14.450Z,59.12
2019-02-14T17:22:43.880Z,59.09
2019-02-14T17:25:13.326Z,59.11
2019-02-14T17:27:42.759Z,59.68
2019-02-14T17:30:12.264Z,59.66
2019-02-14T17:32:41.694Z,59.86
2019-02-14T17:35:11.200Z,59.78
2019-02-14T17:37:40.637Z,60.25
2019-02-14T17:40:10.746Z,60.28
2019-02-14T17:42:40.200Z,60.71
2019-02-14T17:45:10.770Z,61.25
2019-02-14T17:47:40.274Z,61.39
2019-02-14T17:50:10.239Z,61.48
2019-02-14T17:52:39.669Z,61.58
2019-02-14T17:55:10.654Z,62.28
2019-02-14T17:57:40.087Z,62.21
2019-02-14T18:00:12.809Z,62.40
2019-02-14T18:02:43.108Z,62.44
2019-02-14T18:05:12.551Z,62.46
2019-02-14T18:07:42.539Z,62.64
2019-02-14T18:10:14.800Z,63.35
2019-02-14T18:12:44.238Z,63.78
2019-02-14T18:15:15.113Z,63.61
2019-02-14T18:17:44.555Z,64.03
2019-02-14T18:20:14.005Z,64.58
2019-02-14T18:22:44.201Z,64.70
2019-02-14T18:25:14.079Z,64.78
2019-02-14T18:27:43.511Z,65.05
2019-02-14T18:30:13.692Z,65.01
2019-02-14T18:32:43.126Z,65.20
2019-02-14T18:35:13.316Z,65.61
2019-02-14T18:37:42.759Z,66.07
2019-02-14T18:40:12.943Z,65.69
2019-02-14T18:42:47.920Z,65.60
2019-02-14T18:45:17.363Z,65.81
2019-02-14T18:47:46.795Z,66.37
2019-02-14T18:50:16.269Z,66.58
2019-02-14T18:52:45.667Z,66.92
2019-02-14T18:55:15.105Z,66.35
2019-02-14T18:57:44.542Z,66.78
2019-02-14T19:00:17.366Z,67.11
2019-02-14T19:02:46.793Z,67.26
2019-02-14T19:05:16.273Z,67.86
2019-02-14T19:07:45.675Z,68.23
2019-02-14T19:10:18.492Z,68.36
2019-02-14T19:12:47.876Z,68.28
2019-02-14T19:15:17.308Z,68.80
2019-02-14T19:17:46.753Z,68.90
2019-02-14T19:20:16.187Z,69.68
2019-02-14T19:22:46.097Z,70.18
2019-02-14T19:25:15.776Z,69.77
2019-02-14T19:27:45.224Z,69.64
2019-02-14T19:30:15.115Z,69.03
2019-02-14T19:32:44.586Z,68.85
2019-02-14T19:35:22.419Z,68.82
2019-02-14T19:37:45.184Z,68.95
2019-02-14T19:40:14.627Z,69.28
2019-02-14T19:42:44.062Z,70.01
2019-02-14T19:45:13.929Z,70.29
2019-02-14T19:47:43.373Z,70.48
2019-02-14T19:50:15.774Z,70.61
2019-02-14T19:52:45.226Z,70.90
2019-02-14T19:55:33.990Z,70.79
2019-02-14T19:58:03.434Z,70.91
2019-02-14T20:00:33.102Z,70.94
2019-02-14T20:03:02.547Z,71.26
2019-02-14T20:05:31.979Z,71.16
2019-02-14T20:08:01.421Z,71.43
2019-02-14T20:10:30.859Z,71.43
2019-02-14T20:13:00.301Z,71.60
2019-02-14T20:15:36.843Z,71.29
2019-02-14T20:18:00.896Z,70.93
2019-02-14T20:20:30.331Z,71.18
2019-02-14T20:22:59.778Z,71.37
2019-02-14T20:25:30.249Z,71.11
2019-02-14T20:27:59.692Z,70.93
2019-02-14T20:30:29.125Z,70.52
2019-02-14T20:33:04.931Z,70.75
2019-02-14T20:35:29.725Z,71.41
2019-02-14T20:37:59.161Z,71.59
2019-02-14T20:40:28.601Z,71.46
2019-02-14T20:42:58.413Z,71.37
2019-02-14T20:45:27.839Z,71.26
2019-02-14T20:47:57.461Z,71.09
2019-02-14T20:50:27.001Z,71.48
2019-02-14T20:52:56.435Z,71.30
2019-02-14T20:55:26.917Z,71.72
2019-02-14T20:57:56.366Z,72.14
2019-02-14T21:00:27.424Z,72.17
2019-02-14T21:02:56.875Z,72.53
2019-02-14T21:05:26.375Z,72.32
2019-02-14T21:07:55.817Z,72.71
2019-02-14T21:10:25.250Z,72.99
2019-02-14T21:12:54.696Z,72.84
2019-02-14T21:15:24.129Z,72.91
2019-02-14T21:17:53.567Z,72.69
2019-02-14T21:20:23.003Z,73.19
2019-02-14T21:22:52.438Z,73.47
2019-02-14T21:25:23.280Z,73.81
2019-02-14T21:27:53.041Z,73.80
2019-02-14T21:30:22.501Z,73.76
2019-02-14T21:32:51.915Z,73.84
2019-02-14T21:35:21.345Z,73.99
2019-02-14T21:37:50.859Z,74.32
2019-02-14T21:40:20.850Z,74.01
2019-02-14T21:42:50.279Z,73.98
2019-02-14T21:45:19.720Z,73.72
2019-02-14T21:47:49.197Z,74.02
2019-02-14T21:50:18.654Z,74.58
2019-02-14T21:52:48.045Z,74.54
2019-02-14T21:55:17.625Z,75.13
2019-02-14T21:57:47.346Z,74.94
2019-02-14T22:00:26.629Z,74.99
2019-02-14T22:02:56.092Z,74.69
2019-02-14T22:05:26.521Z,74.54
2019-02-14T22:07:56.317Z,74.93
2019-02-14T22:10:25.799Z,74.55
2019-02-14T22:12:55.218Z,75.08
2019-02-14T22:15:29.340Z,74.84
2019-02-14T22:17:58.769Z,74.88
2019-02-14T22:20:28.222Z,74.76
2019-02-14T22:22:57.679Z,74.64
2019-02-14T22:25:27.117Z,74.96
2019-02-14T22:27:56.549Z,75.47
2019-02-14T22:30:25.992Z,75.28
2019-02-14T22:32:55.426Z,75.19
2019-02-14T22:35:24.874Z,75.26
2019-02-14T22:37:54.313Z,75.04
2019-02-14T22:40:24.824Z,75.19
2019-02-14T22:42:54.656Z,75.37
2019-02-14T22:45:24.099Z,75.56
2019-02-14T22:47:53.530Z,75.05
2019-02-14T22:50:22.980Z,75.03
2019-02-14T22:52:52.420Z,75.12
2019-02-14T22:55:21.865Z,75.02
2019-02-14T22:57:51.286Z,75.05
2019-02-14T23:00:43.704Z,75.09
2019-02-14T23:03:13.135Z,74.79
2019-02-14T23:05:42.580Z,75.34
2019-02-14T23:08:12.017Z,75.84
2019-02-14T23:10:41.462Z,75.97
2019-02-14T23:13:10.904Z,75.89
2019-02-14T23:15:40.380Z,75.87
2019-02-14T23:18:09.784Z,75.38
2019-02-14T23:20:39.227Z,75.14
2019-02-14T23:23:08.659Z,75.48
2019-02-14T23:25:38.107Z,75.70
2019-02-14T23:28:07.537Z,75.64
2019-02-14T23:30:36.987Z,75.21
2019-02-14T23:33:06.414Z,75.29
2019-02-14T23:35:35.862Z,75.66
2019-02-14T23:38:05.295Z,75.73
2019-02-14T23:40:34.751Z,75.85
2019-02-14T23:43:05.032Z,75.89
2019-02-14T23:45:34.600Z,76.32
2019-02-14T23:48:04.036Z,76.51
2019-02-14T23:50:33.480Z,76.88
2019-02-14T23:53:02.922Z,76.79
2019-02-14T23:55:32.385Z,77.11
2019-02-14T23:58:01.825Z,77.56
